createdAt,value
2018-10-01T00:01:23.614Z,3.77
2018-10-01T00:03:51.205Z,3.83
2018-10-01T00:06:18.726Z,3.20
2018-10-01T00:08:46.270Z,3.57
2018-10-01T00:11:13.821Z,3.90
2018-10-01T00:13:41.402Z,2.70
2018-10-01T00:16:08.806Z,4.20
2018-10-01T00:18:36.302Z,3.73
2018-10-01T00:21:09.442Z,3.60
2018-10-01T00:23:37.333Z,4.10
2018-10-01T00:26:04.820Z,4.17
2018-10-01T00:28:32.209Z,4.00
2018-10-01T00:31:00.005Z,4.07
2018-10-01T00:33:27.401Z,3.60
2018-10-01T00:35:54.782Z,3.83
2018-10-01T00:38:22.260Z,3.97
2018-10-01T00:40:49.791Z,3.60
2018-10-01T00:43:17.473Z,3.80
2018-10-01T00:45:44.889Z,4.00
2018-10-01T00:48:12.280Z,4.57
2018-10-01T00:50:39.710Z,3.60
2018-10-01T00:53:07.156Z,4.60
2018-10-01T00:55:34.570Z,3.53
2018-10-01T00:58:01.978Z,3.73
2018-10-01T01:00:29.592Z,3.73
2018-10-01T01:02:57.014Z,4.30
2018-10-01T01:05:24.410Z,3.00
2018-10-01T01:07:52.044Z,3.73
2018-10-01T01:10:19.458Z,3.30
2018-10-01T01:12:46.874Z,4.30
2018-10-01T01:15:14.356Z,3.70
2018-10-01T01:17:41.830Z,3.90
2018-10-01T01:20:09.291Z,3.93
2018-10-01T01:22:36.724Z,4.03
2018-10-01T01:25:04.348Z,3.70
2018-10-01T01:27:31.746Z,4.37
2018-10-01T01:29:59.194Z,4.03
2018-10-01T01:32:26.810Z,4.00
2018-10-01T01:34:54.198Z,4.07
2018-10-01T01:37:21.710Z,3.33
2018-10-01T01:39:49.118Z,3.70
2018-10-01T01:42:16.594Z,4.30
2018-10-01T01:44:44.034Z,4.20
2018-10-01T01:47:11.544Z,4.00
2018-10-01T01:49:38.928Z,4.47
2018-10-01T01:52:06.504Z,4.20
2018-10-01T01:54:33.924Z,3.97
2018-10-01T01:57:01.322Z,4.20
2018-10-01T01:59:28.886Z,4.20
2018-10-01T02:01:56.302Z,3.87
2018-10-01T02:04:23.816Z,3.93
2018-10-01T02:06:51.458Z,4.33
2018-10-01T02:09:18.850Z,3.70
2018-10-01T02:11:46.268Z,3.90
2018-10-01T02:14:13.786Z,4.90
2018-10-01T02:16:41.310Z,4.57
2018-10-01T02:19:08.970Z,4.90
2018-10-01T02:21:36.450Z,4.50
2018-10-01T02:24:03.898Z,5.00
2018-10-01T02:26:31.386Z,4.57
2018-10-01T02:28:58.799Z,4.63
2018-10-01T02:31:26.362Z,5.30
2018-10-01T02:33:53.774Z,4.33
2018-10-01T02:36:21.214Z,5.60
2018-10-01T02:38:48.677Z,4.90
2018-10-01T02:41:16.088Z,5.90
2018-10-01T02:43:43.565Z,5.60
2018-10-01T02:46:11.053Z,5.40
2018-10-01T02:48:38.602Z,5.47
2018-10-01T02:51:06.392Z,6.27
2018-10-01T02:54:38.274Z,6.07
2018-10-01T02:57:05.784Z,5.90
2018-10-01T02:59:33.717Z,6.70
2018-10-01T03:02:01.143Z,6.40
2018-10-01T03:04:28.569Z,6.20
2018-10-01T03:06:56.101Z,6.77
2018-10-01T03:09:23.621Z,5.23
2018-10-01T03:11:51.112Z,4.90
2018-10-01T03:14:18.495Z,6.00
2018-10-01T03:16:45.939Z,5.60
2018-10-01T03:19:13.383Z,5.70
2018-10-01T03:21:40.961Z,5.80
2018-10-01T03:24:08.439Z,6.10
2018-10-01T03:26:35.930Z,6.43
2018-10-01T03:29:03.347Z,6.53
2018-10-01T03:31:30.751Z,5.67
2018-10-01T03:33:58.243Z,6.20
2018-10-01T03:36:26.445Z,6.57
2018-10-01T03:38:54.414Z,5.90
2018-10-01T03:41:21.905Z,6.53
2018-10-01T03:43:49.299Z,7.60
2018-10-01T03:46:17.023Z,6.47
2018-10-01T03:48:44.683Z,7.30
2018-10-01T03:51:12.141Z,7.00
2018-10-01T03:53:39.741Z,6.77
2018-10-01T03:56:07.450Z,7.80
2018-10-01T03:58:34.871Z,7.63
2018-10-01T04:01:05.525Z,7.23
2018-10-01T04:03:32.992Z,6.90
2018-10-01T04:06:00.386Z,7.13
2018-10-01T04:08:27.762Z,7.80
2018-10-01T04:10:55.206Z,6.90
2018-10-01T04:13:22.609Z,7.67
2018-10-01T04:15:50.014Z,9.40
2018-10-01T04:18:17.539Z,9.13
2018-10-01T04:20:44.976Z,8.83
2018-10-01T04:23:12.344Z,9.57
2018-10-01T04:25:39.825Z,10.20
2018-10-01T04:28:07.383Z,9.53
2018-10-01T04:30:34.909Z,10.27
2018-10-01T04:33:02.362Z,10.70
2018-10-01T04:35:29.931Z,10.07
2018-10-01T04:37:57.309Z,9.90
2018-10-01T04:40:24.790Z,11.50
2018-10-01T04:42:52.179Z,11.20
2018-10-01T04:45:19.611Z,10.93
2018-10-01T04:47:47.075Z,12.43
2018-10-01T04:50:14.511Z,11.70
2018-10-01T04:52:42.001Z,12.07
2018-10-01T04:55:09.639Z,12.67
2018-10-01T04:57:37.069Z,13.57
2018-10-01T05:00:05.673Z,12.80
2018-10-01T05:02:33.119Z,13.30
2018-10-01T05:05:00.489Z,14.07
2018-10-01T05:07:28.002Z,12.87
2018-10-01T05:09:55.409Z,13.57
2018-10-01T05:12:22.841Z,13.30
2018-10-01T05:14:50.333Z,13.93
2018-10-01T05:17:18.189Z,14.00
2018-10-01T05:19:45.633Z,15.27
2018-10-01T05:22:13.249Z,13.87
2018-10-01T05:24:40.864Z,15.23
2018-10-01T05:27:08.355Z,15.07
2018-10-01T05:29:35.799Z,14.23
2018-10-01T05:32:03.319Z,14.47
2018-10-01T05:34:30.707Z,16.30
2018-10-01T05:36:58.257Z,15.40
2018-10-01T05:39:25.679Z,16.40
2018-10-01T05:41:53.171Z,16.10
2018-10-01T05:44:20.601Z,15.93
2018-10-01T05:46:48.017Z,16.17
2018-10-01T05:49:15.449Z,15.93
2018-10-01T05:51:42.939Z,15.97
2018-10-01T05:54:10.399Z,15.37
2018-10-01T05:56:37.823Z,16.37
2018-10-01T05:59:05.469Z,15.93
2018-10-01T06:01:33.045Z,16.03
2018-10-01T06:04:00.447Z,13.87
2018-10-01T06:06:27.881Z,14.03
2018-10-01T06:08:55.406Z,14.37
2018-10-01T06:11:23.575Z,14.17
2018-10-01T06:13:50.960Z,16.03
2018-10-01T06:16:18.438Z,17.47
2018-10-01T06:18:45.801Z,18.33
2018-10-01T06:21:13.215Z,18.93
2018-10-01T06:23:40.661Z,18.00
2018-10-01T06:26:08.157Z,15.27
2018-10-01T06:28:35.594Z,16.20
2018-10-01T06:31:03.047Z,15.90
2018-10-01T06:33:30.406Z,14.40
2018-10-01T06:35:57.810Z,14.57
2018-10-01T06:38:25.260Z,14.20
2018-10-01T06:40:52.700Z,13.13
2018-10-01T06:43:20.203Z,13.33
2018-10-01T06:45:47.674Z,12.57
2018-10-01T06:48:15.146Z,13.20
2018-10-01T06:50:42.628Z,10.00
2018-10-01T06:53:10.110Z,11.00
2018-10-01T06:55:37.546Z,10.60
2018-10-01T06:58:05.086Z,10.83
2018-10-01T07:00:32.574Z,9.83
2018-10-01T07:02:59.978Z,10.10
2018-10-01T07:05:27.443Z,9.90
2018-10-01T07:07:55.010Z,8.90
2018-10-01T07:10:22.489Z,9.10
2018-10-01T07:12:49.880Z,7.90
2018-10-01T07:15:17.298Z,8.57
2018-10-01T07:17:44.697Z,8.53
2018-10-01T07:20:12.125Z,10.27
2018-10-01T07:22:39.801Z,9.57
2018-10-01T07:27:41.684Z,8.60
2018-10-01T07:30:09.106Z,8.27
2018-10-01T07:32:39.575Z,8.40
2018-10-01T07:35:07.135Z,7.83
2018-10-01T07:37:34.565Z,9.10
2018-10-01T07:40:01.997Z,7.77
2018-10-01T07:42:29.578Z,9.13
2018-10-01T07:44:57.120Z,10.50
2018-10-01T07:47:24.633Z,10.20
2018-10-01T07:49:52.121Z,9.50
2018-10-01T07:52:19.541Z,8.77
2018-10-01T07:54:46.957Z,9.07
2018-10-01T07:57:14.504Z,8.90
2018-10-01T07:59:42.105Z,11.27
2018-10-01T08:02:09.495Z,9.00
2018-10-01T08:04:37.019Z,9.20
2018-10-01T08:07:04.454Z,8.47
2018-10-01T08:09:32.052Z,8.90
2018-10-01T08:11:59.461Z,9.73
2018-10-01T08:14:26.861Z,11.00
2018-10-01T08:16:54.257Z,13.23
2018-10-01T08:19:21.715Z,14.10
2018-10-01T08:21:49.182Z,13.40
2018-10-01T08:24:16.745Z,14.10
2018-10-01T08:26:44.278Z,16.07
2018-10-01T08:29:11.776Z,15.07
2018-10-01T08:31:39.170Z,13.70
2018-10-01T08:34:06.637Z,14.47
2018-10-01T08:36:34.159Z,14.63
2018-10-01T08:39:01.728Z,13.53
2018-10-01T08:41:29.323Z,12.40
2018-10-01T08:43:56.714Z,11.63
2018-10-01T08:46:24.119Z,11.70
2018-10-01T08:48:55.521Z,10.90
2018-10-01T08:51:28.541Z,11.20
2018-10-01T08:54:34.294Z,10.70
2018-10-01T08:57:01.845Z,10.90
2018-10-01T08:59:29.433Z,9.23
2018-10-01T09:01:58.141Z,8.30
2018-10-01T09:04:25.622Z,7.33
2018-10-01T09:06:53.226Z,5.60
2018-10-01T09:09:20.518Z,6.40
2018-10-01T09:11:47.997Z,5.87
2018-10-01T09:14:15.435Z,5.00
2018-10-01T09:16:42.974Z,4.33
2018-10-01T09:19:10.392Z,6.60
2018-10-01T09:21:37.937Z,6.13
2018-10-01T09:24:05.434Z,5.50
2018-10-01T09:26:32.912Z,4.90
2018-10-01T09:29:00.321Z,5.27
2018-10-01T09:31:27.832Z,5.30
2018-10-01T09:33:55.282Z,4.23
2018-10-01T09:36:22.923Z,4.53
2018-10-01T09:38:50.404Z,5.03
2018-10-01T09:41:18.118Z,5.33
2018-10-01T09:43:45.568Z,5.00
2018-10-01T09:46:13.162Z,5.23
2018-10-01T09:48:40.565Z,5.03
2018-10-01T09:51:07.996Z,4.00
2018-10-01T09:53:35.553Z,6.13
2018-10-01T09:56:03.093Z,3.60
2018-10-01T09:58:30.549Z,4.07
2018-10-01T10:01:03.786Z,4.37
2018-10-01T10:03:31.235Z,3.50
2018-10-01T10:05:58.690Z,4.00
2018-10-01T10:08:26.171Z,3.50
2018-10-01T10:10:53.623Z,3.57
2018-10-01T10:13:21.105Z,3.70
2018-10-01T10:15:48.850Z,4.10
2018-10-01T10:18:16.451Z,3.53
2018-10-01T10:20:43.856Z,4.30
2018-10-01T10:23:11.351Z,5.10
2018-10-01T10:25:38.802Z,4.77
2018-10-01T10:28:06.352Z,4.50
2018-10-01T10:30:33.957Z,4.47
2018-10-01T10:33:01.567Z,3.97
2018-10-01T10:35:29.298Z,5.30
2018-10-01T10:37:56.731Z,4.80
2018-10-01T10:40:24.127Z,5.23
2018-10-01T10:42:51.560Z,5.10
2018-10-01T10:45:19.097Z,5.23
2018-10-01T10:47:46.573Z,5.07
2018-10-01T10:50:14.194Z,4.67
2018-10-01T10:52:41.994Z,4.80
2018-10-01T10:55:09.426Z,4.90
2018-10-01T10:57:36.955Z,4.13
2018-10-01T11:00:04.595Z,4.60
2018-10-01T11:02:32.215Z,4.80
2018-10-01T11:04:59.575Z,5.20
2018-10-01T11:07:27.166Z,5.27
2018-10-01T11:09:54.602Z,3.60
2018-10-01T11:12:22.110Z,4.17
2018-10-01T11:14:49.566Z,3.80
2018-10-01T11:17:17.142Z,3.47
2018-10-01T11:19:44.608Z,3.20
2018-10-01T11:22:13.497Z,2.70
2018-10-01T11:24:41.188Z,3.20
2018-10-01T11:27:08.730Z,3.10
2018-10-01T11:29:36.548Z,3.13
2018-10-01T11:32:04.048Z,2.80
2018-10-01T11:34:31.583Z,3.50
2018-10-01T11:36:59.367Z,2.53
2018-10-01T11:39:26.897Z,2.03
2018-10-01T11:41:54.344Z,2.33
2018-10-01T11:44:21.794Z,1.83
2018-10-01T11:46:49.196Z,1.83
2018-10-01T11:49:16.658Z,2.30
2018-10-01T11:51:44.287Z,2.13
2018-10-01T11:54:11.688Z,2.90
2018-10-01T11:56:39.229Z,3.43
2018-10-01T11:59:06.715Z,2.33
2018-10-01T12:01:34.208Z,1.80
2018-10-01T12:04:01.706Z,1.73
2018-10-01T12:06:29.076Z,1.87
2018-10-01T12:08:56.672Z,2.70
2018-10-01T12:11:24.123Z,2.80
2018-10-01T12:13:51.661Z,1.60
2018-10-01T12:16:19.136Z,1.80
2018-10-01T12:18:46.654Z,1.90
2018-10-01T12:21:14.285Z,4.47
2018-10-01T12:23:41.843Z,1.90
2018-10-01T12:26:09.328Z,1.87
2018-10-01T12:28:36.856Z,1.67
2018-10-01T12:31:04.348Z,2.63
2018-10-01T12:33:31.838Z,1.90
2018-10-01T12:35:59.229Z,1.83
2018-10-01T12:38:26.666Z,2.00
2018-10-01T12:40:56.873Z,1.70
2018-10-01T12:43:24.667Z,2.20
2018-10-01T12:45:52.170Z,1.50
2018-10-01T12:48:19.825Z,5.10
2018-10-01T12:50:47.239Z,1.60
2018-10-01T12:53:14.830Z,1.73
2018-10-01T12:55:42.374Z,1.73
2018-10-01T12:58:09.879Z,1.77
2018-10-01T13:00:37.423Z,1.73
2018-10-01T13:03:04.987Z,1.63
2018-10-01T13:05:32.531Z,1.40
2018-10-01T13:08:01.129Z,1.80
2018-10-01T13:10:28.767Z,2.00
2018-10-01T13:12:56.669Z,1.57
2018-10-01T13:15:24.321Z,1.20
2018-10-01T13:17:51.752Z,1.30
2018-10-01T13:20:19.363Z,1.57
2018-10-01T13:22:46.848Z,1.80
2018-10-01T13:25:14.366Z,1.43
2018-10-01T13:27:41.943Z,1.80
2018-10-01T13:30:09.615Z,1.37
2018-10-01T13:32:37.062Z,2.03
2018-10-01T13:35:04.583Z,2.73
2018-10-01T13:37:32.070Z,1.43
2018-10-01T13:39:59.574Z,1.67
2018-10-01T13:42:27.107Z,2.40
2018-10-01T13:44:54.562Z,1.83
2018-10-01T13:47:22.153Z,1.60
2018-10-01T13:49:49.708Z,1.60
2018-10-01T13:52:17.481Z,2.33
2018-10-01T13:54:44.935Z,1.43
2018-10-01T13:57:12.556Z,1.80
2018-10-01T13:59:40.062Z,3.33
2018-10-01T14:02:07.580Z,1.60
2018-10-01T14:04:35.003Z,1.50
2018-10-01T14:07:02.517Z,1.27
2018-10-01T14:09:30.065Z,1.73
2018-10-01T14:11:57.660Z,1.60
2018-10-01T14:14:25.077Z,2.33
2018-10-01T14:16:52.524Z,1.53
2018-10-01T14:19:20.106Z,1.10
2018-10-01T14:21:47.574Z,1.83
2018-10-01T14:24:15.158Z,1.03
2018-10-01T14:26:42.650Z,2.60
2018-10-01T14:29:10.246Z,1.40
2018-10-01T14:31:37.713Z,1.30
2018-10-01T14:34:05.222Z,2.43
2018-10-01T14:36:32.788Z,1.30
2018-10-01T14:39:00.198Z,1.60
2018-10-01T14:41:27.693Z,1.40
2018-10-01T14:43:55.126Z,1.20
2018-10-01T14:46:22.642Z,1.50
2018-10-01T14:48:50.112Z,1.50
2018-10-01T14:51:17.656Z,2.03
2018-10-01T14:53:45.043Z,1.50
2018-10-01T14:56:12.706Z,1.77
2018-10-01T14:58:40.163Z,1.43
2018-10-01T15:01:07.614Z,1.40
2018-10-01T15:03:35.621Z,1.60
2018-10-01T15:06:03.091Z,1.40
2018-10-01T15:08:30.656Z,1.87
2018-10-01T15:10:58.329Z,1.83
2018-10-01T15:13:25.900Z,1.47
2018-10-01T15:15:53.320Z,1.67
2018-10-01T15:18:20.962Z,1.53
2018-10-01T15:20:48.314Z,1.73
2018-10-01T15:23:15.744Z,1.70
2018-10-01T15:25:43.202Z,1.50
2018-10-01T15:28:10.724Z,1.63
2018-10-01T15:30:38.255Z,1.20
2018-10-01T15:33:06.082Z,1.50
2018-10-01T15:35:33.574Z,1.60
2018-10-01T15:38:01.014Z,2.47
2018-10-01T15:40:28.625Z,1.53
2018-10-01T15:42:56.470Z,2.07
2018-10-01T15:45:24.230Z,1.40
2018-10-01T15:47:51.654Z,1.60
2018-10-01T15:50:19.104Z,2.00
2018-10-01T15:52:46.556Z,1.57
2018-10-01T15:55:14.190Z,1.50
2018-10-01T15:57:41.618Z,1.50
2018-10-01T16:00:09.162Z,1.20
2018-10-01T16:02:36.778Z,1.20
2018-10-01T16:05:06.260Z,1.53
2018-10-01T16:07:35.034Z,1.27
2018-10-01T16:10:02.622Z,1.40
2018-10-01T16:12:30.072Z,1.63
2018-10-01T16:17:56.643Z,1.53
2018-10-01T16:20:24.114Z,1.50
2018-10-01T16:22:51.701Z,1.60
2018-10-01T16:25:19.186Z,1.30
2018-10-01T16:27:46.604Z,1.50
2018-10-01T16:30:14.049Z,1.43
2018-10-01T16:32:41.548Z,1.60
2018-10-01T16:35:09.453Z,1.50
2018-10-01T16:37:36.930Z,1.63
2018-10-01T16:40:04.557Z,1.63
2018-10-01T16:42:32.035Z,1.50
2018-10-01T16:44:59.523Z,1.37
2018-10-01T16:47:27.004Z,1.50
2018-10-01T16:49:54.450Z,1.50
2018-10-01T16:52:22.023Z,1.47
2018-10-01T16:54:49.654Z,2.37
2018-10-01T16:57:17.260Z,1.70
2018-10-01T16:59:44.754Z,1.57
2018-10-01T17:02:12.510Z,1.60
2018-10-01T17:04:40.142Z,1.63
2018-10-01T17:07:07.654Z,1.63
2018-10-01T17:09:35.166Z,1.40
2018-10-01T17:12:02.555Z,2.00
2018-10-01T17:14:30.128Z,1.97
2018-10-01T17:16:57.664Z,1.70
2018-10-01T17:19:25.200Z,1.80
2018-10-01T17:21:52.676Z,1.97
2018-10-01T17:24:20.180Z,2.17
2018-10-01T17:26:47.655Z,2.00
2018-10-01T17:29:15.188Z,1.97
2018-10-01T17:31:42.726Z,1.87
2018-10-01T17:34:10.182Z,2.00
2018-10-01T17:36:37.791Z,2.00
2018-10-01T17:39:07.958Z,2.33
2018-10-01T17:41:35.643Z,2.20
2018-10-01T17:44:03.354Z,2.33
2018-10-01T17:46:30.955Z,1.90
2018-10-01T17:48:58.428Z,2.17
2018-10-01T17:51:25.947Z,1.90
2018-10-01T17:53:53.495Z,1.90
2018-10-01T17:56:20.987Z,1.73
2018-10-01T17:58:48.426Z,2.10
2018-10-01T18:01:16.317Z,1.90
2018-10-01T18:03:43.797Z,2.00
2018-10-01T18:06:11.937Z,2.43
2018-10-01T18:08:39.467Z,1.90
2018-10-01T18:11:07.017Z,2.93
2018-10-01T18:13:34.638Z,2.40
2018-10-01T18:16:02.139Z,2.93
2018-10-01T18:18:29.571Z,1.93
2018-10-01T18:20:57.060Z,2.03
2018-10-01T18:23:24.570Z,2.17
2018-10-01T18:25:52.026Z,2.40
2018-10-01T18:28:19.502Z,1.73
2018-10-01T18:30:47.154Z,2.10
2018-10-01T18:33:14.594Z,2.00
2018-10-01T18:35:42.233Z,1.80
2018-10-01T18:38:09.798Z,1.63
2018-10-01T18:40:37.298Z,2.40
2018-10-01T18:43:04.782Z,2.43
2018-10-01T18:45:32.342Z,2.33
2018-10-01T18:47:59.779Z,1.90
2018-10-01T18:50:27.405Z,2.33
2018-10-01T18:52:54.846Z,2.13
2018-10-01T18:55:22.804Z,2.43
2018-10-01T18:57:50.710Z,2.37
2018-10-01T19:00:18.280Z,2.30
2018-10-01T19:02:45.848Z,2.07
2018-10-01T19:05:13.390Z,2.17
2018-10-01T19:07:41.828Z,2.73
2018-10-01T19:10:09.997Z,1.70
2018-10-01T19:12:37.543Z,3.90
2018-10-01T19:15:07.543Z,2.30
2018-10-01T19:17:35.037Z,1.90
2018-10-01T19:20:02.719Z,2.20
2018-10-01T19:22:30.294Z,2.40
2018-10-01T19:24:57.812Z,2.47
2018-10-01T19:27:25.480Z,2.10
2018-10-01T19:29:53.504Z,2.50
2018-10-01T19:32:21.101Z,2.20
2018-10-01T19:34:48.583Z,2.57
2018-10-01T19:37:16.105Z,2.27
2018-10-01T19:39:43.687Z,2.03
2018-10-01T19:42:11.139Z,2.53
2018-10-01T19:44:38.607Z,2.50
2018-10-01T19:47:06.416Z,2.50
2018-10-01T19:49:33.878Z,2.33
2018-10-01T19:52:01.811Z,2.80
2018-10-01T19:54:29.231Z,2.73
2018-10-01T19:56:56.703Z,1.53
2018-10-01T19:59:24.250Z,2.30
2018-10-01T20:01:51.763Z,2.00
2018-10-01T20:04:19.291Z,2.07
2018-10-01T20:06:46.795Z,2.10
2018-10-01T20:09:14.344Z,2.70
2018-10-01T20:11:42.043Z,1.60
2018-10-01T20:14:09.513Z,2.30
2018-10-01T20:16:37.044Z,2.17
2018-10-01T20:19:04.757Z,2.90
2018-10-01T20:21:32.359Z,2.40
2018-10-01T20:24:00.133Z,2.30
2018-10-01T20:26:27.650Z,1.77
2018-10-01T20:28:55.657Z,2.63
2018-10-01T20:31:22.835Z,2.30
2018-10-01T20:33:50.366Z,2.50
2018-10-01T20:36:17.996Z,3.00
2018-10-01T20:38:45.450Z,2.83
2018-10-01T20:41:13.131Z,2.43
2018-10-01T20:43:40.614Z,2.70
2018-10-01T20:46:08.221Z,2.57
2018-10-01T20:48:35.672Z,3.07
2018-10-01T20:51:03.195Z,2.30
2018-10-01T20:53:30.718Z,2.10
2018-10-01T20:55:58.161Z,2.10
2018-10-01T20:58:25.659Z,2.70
2018-10-01T21:00:53.144Z,3.77
2018-10-01T21:03:20.615Z,3.13
2018-10-01T21:05:48.923Z,2.40
2018-10-01T21:08:16.348Z,2.40
2018-10-01T21:10:44.117Z,2.40
2018-10-01T21:13:11.583Z,2.60
2018-10-01T21:15:39.182Z,2.83
2018-10-01T21:18:06.795Z,2.40
2018-10-01T21:20:34.361Z,2.20
2018-10-01T21:23:01.778Z,3.43
2018-10-01T21:25:29.242Z,2.93
2018-10-01T21:27:56.998Z,3.00
2018-10-01T21:30:24.453Z,2.60
2018-10-01T21:32:51.845Z,3.37
2018-10-01T21:35:19.335Z,2.80
2018-10-01T21:37:46.806Z,2.97
2018-10-01T21:40:15.824Z,2.80
2018-10-01T21:42:43.540Z,3.30
2018-10-01T21:45:12.179Z,2.63
2018-10-01T21:47:39.663Z,2.53
2018-10-01T21:50:07.765Z,2.57
2018-10-01T21:52:35.483Z,2.73
2018-10-01T21:55:03.035Z,2.07
2018-10-01T21:57:30.613Z,2.43
2018-10-01T21:59:58.179Z,2.83
2018-10-01T22:02:25.603Z,2.90
2018-10-01T22:04:53.232Z,2.57
2018-10-01T22:07:20.874Z,2.90
2018-10-01T22:09:48.915Z,2.47
2018-10-01T22:12:16.385Z,2.83
2018-10-01T22:14:44.047Z,3.00
2018-10-01T22:17:11.581Z,3.27
2018-10-01T22:19:39.237Z,3.70
2018-10-01T22:22:07.008Z,2.80
2018-10-01T22:24:34.691Z,2.70
2018-10-01T22:27:02.479Z,3.20
2018-10-01T22:29:29.902Z,3.10
2018-10-01T22:31:57.335Z,3.30
2018-10-01T22:34:24.827Z,3.70
2018-10-01T22:36:52.472Z,3.20
2018-10-01T22:39:19.882Z,3.30
2018-10-01T22:41:47.387Z,3.13
2018-10-01T22:44:14.955Z,3.10
2018-10-01T22:46:42.379Z,3.30
2018-10-01T22:49:09.821Z,3.70
2018-10-01T22:51:37.329Z,4.50
2018-10-01T22:54:04.892Z,4.53
2018-10-01T22:56:32.695Z,3.70
2018-10-01T22:59:00.221Z,4.80
2018-10-01T23:01:28.070Z,3.80
2018-10-01T23:03:55.493Z,3.20
2018-10-01T23:06:23.392Z,3.70
2018-10-01T23:08:50.888Z,3.30
2018-10-01T23:11:18.340Z,3.80
2018-10-01T23:13:45.784Z,4.00
2018-10-01T23:16:13.256Z,4.30
2018-10-01T23:18:40.794Z,4.10
2018-10-01T23:21:08.216Z,4.97
2018-10-01T23:23:35.658Z,5.10
2018-10-01T23:26:03.132Z,5.13
2018-10-01T23:28:30.563Z,5.93
2018-10-01T23:30:57.956Z,6.03
2018-10-01T23:33:25.364Z,6.53
2018-10-01T23:35:52.890Z,5.23
2018-10-01T23:38:20.299Z,5.83
2018-10-01T23:40:48.734Z,6.40
2018-10-01T23:43:16.146Z,6.03
2018-10-01T23:45:43.568Z,6.27
2018-10-01T23:48:11.040Z,6.90
2018-10-01T23:50:38.510Z,6.00
2018-10-01T23:53:05.974Z,6.10
2018-10-01T23:55:33.568Z,5.23
2018-10-01T23:58:01.060Z,5.13
